Time;durP1;ratioP1;P1;durP2;ratioP2;P2;SDS_P1;SDS_P2;PMS_P1;PMS_P2;Temp;Humidity;BMP_temperature;BMP_pressure;BME280_temperature;BME280_humidity;BME280_pressure;Samples;Min_cycle;Max_cycle;Signal;HPM_P1;HPM_P2
2024/01/13 00:01:45;;;;;;;17.77;16.00;;;2.10;99.90;;;;;;5012002;28;20213;-59
2024/01/13 00:04:11;;;;;;;17.60;16.10;;;2.10;99.90;;;;;;5022681;28;20189;-56
2024/01/13 00:06:36;;;;;;;17.47;15.87;;;2.10;99.90;;;;;;5022006;28;20279;-54
2024/01/13 00:09:02;;;;;;;16.80;15.30;;;2.10;99.90;;;;;;5033161;28;20408;-52
2024/01/13 00:11:28;;;;;;;17.60;16.13;;;2.10;99.90;;;;;;5026861;28;20200;-55
2024/01/13 00:13:53;;;;;;;17.07;15.60;;;2.10;99.90;;;;;;5036007;28;20284;-52
2024/01/13 00:16:19;;;;;;;16.20;15.03;;;2.10;99.90;;;;;;5036136;28;20193;-56
2024/01/13 00:18:45;;;;;;;17.37;15.80;;;2.00;99.90;;;;;;5035209;28;20236;-58
2024/01/13 00:21:10;;;;;;;16.80;15.40;;;2.10;99.90;;;;;;5036908;28;20241;-57
2024/01/13 00:23:36;;;;;;;16.47;15.07;;;2.10;99.90;;;;;;5038984;28;20235;-55
2024/01/13 00:26:02;;;;;;;17.07;15.27;;;2.10;88.80;;;;;;5038416;28;20672;-49
2024/01/13 00:28:28;;;;;;;17.13;15.70;;;2.10;73.20;;;;;;5032447;28;20415;-51
2024/01/13 00:30:53;;;;;;;16.50;15.20;;;2.10;92.10;;;;;;5025911;28;20694;-50
2024/01/13 00:33:19;;;;;;;16.80;15.30;;;2.10;99.90;;;;;;5028997;28;20258;-53
2024/01/13 00:35:45;;;;;;;16.73;15.23;;;2.10;99.90;;;;;;5036456;28;20185;-55
2024/01/13 00:38:10;;;;;;;15.60;14.40;;;2.10;99.90;;;;;;5030911;28;20196;-53
2024/01/13 00:40:36;;;;;;;17.83;16.30;;;2.10;99.90;;;;;;5038116;28;20223;-56
2024/01/13 00:43:01;;;;;;;16.47;14.97;;;2.10;99.90;;;;;;5034806;28;20661;-58
2024/01/13 00:45:27;;;;;;;15.93;14.53;;;2.10;99.90;;;;;;5039353;28;20196;-55
2024/01/13 00:47:53;;;;;;;16.43;14.90;;;2.00;99.90;;;;;;5034822;28;20185;-58
2024/01/13 00:50:18;;;;;;;16.70;15.30;;;2.00;99.90;;;;;;5039943;28;20227;-56
2024/01/13 00:52:44;;;;;;;16.60;15.17;;;2.10;99.90;;;;;;5034984;28;20203;-56
2024/01/13 00:55:09;;;;;;;16.23;14.90;;;2.00;99.90;;;;;;5034860;28;20185;-36
2024/01/13 00:57:35;;;;;;;15.57;14.30;;;2.00;99.90;;;;;;5032445;28;20955;-37
2024/01/13 01:00:00;;;;;;;16.00;14.60;;;2.00;1.00;;;;;;5034891;28;20189;-36
2024/01/13 01:02:26;;;;;;;16.37;14.80;;;2.00;99.90;;;;;;5003951;28;20552;-55
2024/01/13 01:04:52;;;;;;;17.70;16.13;;;2.00;99.90;;;;;;5034419;28;20196;-54
2024/01/13 01:07:17;;;;;;;15.50;14.30;;;2.10;99.90;;;;;;5010342;28;20584;-56
2024/01/13 01:09:43;;;;;;;16.70;15.33;;;2.10;99.90;;;;;;5036927;28;20170;-54
2024/01/13 01:12:08;;;;;;;16.40;15.20;;;2.10;99.90;;;;;;5034398;28;20289;-55
2024/01/13 01:14:34;;;;;;;16.67;15.33;;;2.10;99.90;;;;;;5036478;28;20285;-56
2024/01/13 01:17:00;;;;;;;16.47;15.17;;;2.20;99.90;;;;;;5037786;28;20184;-54
2024/01/13 01:19:25;;;;;;;15.90;14.50;;;2.10;99.90;;;;;;5032265;28;20248;-55
2024/01/13 01:21:51;;;;;;;17.30;15.63;;;2.20;99.90;;;;;;5024944;28;20228;-55
2024/01/13 01:24:16;;;;;;;14.57;13.67;;;2.20;99.90;;;;;;5025627;28;20538;-55
2024/01/13 01:26:42;;;;;;;16.67;15.03;;;2.10;1.00;;;;;;5035550;28;20258;-55
2024/01/13 01:29:08;;;;;;;16.43;15.13;;;2.10;1.00;;;;;;5021945;28;20179;-56
2024/01/13 01:31:34;;;;;;;15.60;14.30;;;2.10;1.00;;;;;;5023507;28;20185;-52
2024/01/13 01:34:00;;;;;;;16.80;15.30;;;2.00;22.90;;;;;;5034356;28;20245;-55
2024/01/13 01:36:25;;;;;;;17.30;15.80;;;2.10;1.00;;;;;;5035849;28;20189;-53
2024/01/13 01:38:51;;;;;;;16.60;15.10;;;2.00;1.00;;;;;;5031429;28;20909;-56
2024/01/13 01:41:16;;;;;;;17.30;15.83;;;2.00;1.00;;;;;;5037499;28;20209;-54
2024/01/13 01:43:43;;;;;;;16.33;15.13;;;2.00;1.00;;;;;;5034660;28;20697;-55
2024/01/13 01:46:13;;;;;;;16.63;15.27;;;2.00;1.00;;;;;;5036590;28;20185;-56
2024/01/13 01:48:40;;;;;;;16.52;15.13;;;2.10;1.00;;;;;;5037346;28;20658;-55
2024/01/13 01:51:06;;;;;;;15.98;14.68;;;2.20;99.90;;;;;;5029023;28;20228;-53
2024/01/13 01:53:34;;;;;;;16.37;15.07;;;2.20;99.90;;;;;;5030280;28;21878;-53
2024/01/13 01:56:04;;;;;;;15.65;14.45;;;2.20;29.60;;;;;;5033355;28;20546;-55
2024/01/13 01:58:30;;;;;;;16.58;15.27;;;2.20;1.00;;;;;;5026490;28;20178;-38
2024/01/13 02:00:56;;;;;;;15.05;13.85;;;2.20;1.00;;;;;;5035416;28;20216;-36
2024/01/13 02:03:22;;;;;;;15.90;14.80;;;2.20;99.90;;;;;;5030062;28;20200;-37
2024/01/13 02:05:47;;;;;;;15.33;14.03;;;2.10;99.90;;;;;;5039328;28;20220;-36
2024/01/13 02:08:13;;;;;;;17.07;15.30;;;2.00;99.90;;;;;;5031708;28;20182;-37
2024/01/13 02:10:39;;;;;;;15.87;14.63;;;2.00;1.00;;;;;;5036086;28;20193;-37
2024/01/13 02:13:04;;;;;;;15.50;14.20;;;2.00;1.00;;;;;;5022267;28;20559;-37
2024/01/13 02:15:30;;;;;;;16.17;14.97;;;2.00;73.10;;;;;;5032516;28;20261;-37
2024/01/13 02:17:56;;;;;;;16.17;14.93;;;1.90;29.40;;;;;;5033213;28;20229;-36
2024/01/13 02:20:21;;;;;;;15.87;14.53;;;2.00;99.90;;;;;;5002933;28;20742;-37
2024/01/13 02:22:47;;;;;;;15.07;13.97;;;1.90;6.00;;;;;;5029234;28;20188;-38
2024/01/13 02:25:13;;;;;;;14.83;13.83;;;2.00;99.90;;;;;;5000326;28;20556;-36
2024/01/13 02:27:38;;;;;;;16.50;15.17;;;1.90;99.90;;;;;;5032313;28;20265;-37
2024/01/13 02:30:04;;;;;;;16.20;14.90;;;1.90;99.90;;;;;;5036793;28;20184;-37
2024/01/13 02:32:30;;;;;;;15.77;14.48;;;1.90;99.90;;;;;;5026439;28;20244;-36
2024/01/13 02:34:55;;;;;;;16.40;15.00;;;2.00;99.90;;;;;;5037016;28;20189;-37
2024/01/13 02:37:21;;;;;;;17.10;15.80;;;2.00;99.90;;;;;;5034799;28;20191;-53
2024/01/13 02:39:47;;;;;;;16.10;14.70;;;1.90;99.90;;;;;;5040359;28;20198;-54
2024/01/13 02:42:13;;;;;;;15.37;14.27;;;1.90;99.90;;;;;;5029898;28;20228;-56
2024/01/13 02:44:38;;;;;;;16.80;15.30;;;1.90;99.90;;;;;;5037179;28;20419;-52
2024/01/13 02:47:04;;;;;;;16.43;15.17;;;1.90;99.90;;;;;;5034528;28;20199;-55
2024/01/13 02:49:30;;;;;;;16.53;15.13;;;1.90;99.90;;;;;;5031790;28;20200;-52
2024/01/13 02:51:56;;;;;;;15.70;14.50;;;2.00;99.90;;;;;;5031565;28;20519;-55
2024/01/13 02:54:21;;;;;;;16.37;15.00;;;2.00;99.90;;;;;;5035571;28;20447;-56
2024/01/13 02:56:47;;;;;;;17.57;15.27;;;2.00;99.90;;;;;;5038810;28;20292;-53
2024/01/13 02:59:12;;;;;;;16.17;14.83;;;2.10;62.60;;;;;;5028228;28;20188;-54
2024/01/13 03:01:38;;;;;;;16.20;14.80;;;2.10;99.90;;;;;;5032032;28;20219;-36
2024/01/13 03:04:04;;;;;;;16.07;14.77;;;2.00;57.70;;;;;;5013738;28;20220;-36
2024/01/13 03:06:29;;;;;;;16.10;14.70;;;2.00;99.90;;;;;;5029841;28;20192;-37
2024/01/13 03:08:55;;;;;;;16.63;15.17;;;1.90;90.70;;;;;;5026648;28;20184;-40
2024/01/13 03:11:21;;;;;;;15.80;14.40;;;1.90;99.30;;;;;;5006187;28;20253;-36
2024/01/13 03:13:47;;;;;;;15.73;14.53;;;1.90;99.90;;;;;;5023700;28;20751;-36
2024/01/13 03:16:13;;;;;;;15.73;14.60;;;1.90;99.90;;;;;;5037523;28;20601;-36
2024/01/13 03:18:39;;;;;;;16.25;14.95;;;1.90;37.40;;;;;;5018709;28;20228;-36
2024/01/13 03:21:06;;;;;;;15.60;14.40;;;1.90;99.90;;;;;;5026383;28;20323;-38
2024/01/13 03:23:32;;;;;;;16.10;14.70;;;2.00;1.00;;;;;;5035623;28;20319;-36
2024/01/13 03:25:57;;;;;;;16.77;15.37;;;2.00;1.00;;;;;;5028949;28;20185;-55
2024/01/13 03:28:24;;;;;;;15.97;14.37;;;2.00;9.30;;;;;;5021634;28;20780;-55
2024/01/13 03:30:50;;;;;;;14.23;13.13;;;2.10;1.00;;;;;;5031488;28;20213;-55
2024/01/13 03:33:17;;;;;;;15.40;14.10;;;2.10;1.00;;;;;;5028305;28;20258;-55
2024/01/13 03:35:42;;;;;;;14.82;13.80;;;2.20;99.90;;;;;;5041012;28;21425;-56
2024/01/13 03:38:08;;;;;;;15.23;14.13;;;2.20;99.90;;;;;;5039068;28;20191;-53
2024/01/13 03:40:34;;;;;;;15.27;13.80;;;2.20;99.90;;;;;;5035149;28;20216;-53
2024/01/13 03:42:59;;;;;;;15.60;14.40;;;2.20;99.90;;;;;;5038083;28;20228;-54
2024/01/13 03:45:25;;;;;;;14.73;13.53;;;2.20;99.90;;;;;;5035872;28;20189;-45
2024/01/13 03:47:51;;;;;;;15.07;13.88;;;2.30;1.00;;;;;;5041653;28;20251;-56
2024/01/13 03:50:17;;;;;;;16.17;14.87;;;2.30;1.00;;;;;;5030484;28;20181;-56
2024/01/13 03:52:42;;;;;;;15.50;14.40;;;2.20;2.70;;;;;;5023723;28;20193;-37
2024/01/13 03:55:08;;;;;;;15.37;14.20;;;2.20;1.00;;;;;;5029040;28;20192;-37
2024/01/13 03:57:34;;;;;;;15.85;14.45;;;2.30;1.00;;;;;;5035440;28;20254;-36
2024/01/13 03:59:59;;;;;;;15.70;14.50;;;2.30;99.90;;;;;;5027927;28;20212;-43
2024/01/13 04:02:27;;;;;;;15.03;13.80;;;2.30;99.90;;;;;;5028572;28;20201;-38
2024/01/13 04:04:52;;;;;;;15.57;14.52;;;2.30;1.00;;;;;;5037685;28;20174;-37
2024/01/13 04:07:18;;;;;;;15.17;14.00;;;2.40;1.00;;;;;;5023817;28;20541;-37
2024/01/13 04:09:44;;;;;;;14.63;13.63;;;2.40;99.90;;;;;;5027460;28;20192;-37
2024/01/13 04:12:09;;;;;;;15.93;14.63;;;2.40;99.90;;;;;;5028380;28;20189;-37
2024/01/13 04:14:35;;;;;;;14.80;13.80;;;2.30;99.90;;;;;;5036068;28;20196;-37
2024/01/13 04:17:00;;;;;;;13.60;12.70;;;2.30;1.00;;;;;;5028377;28;20185;-36
2024/01/13 04:19:26;;;;;;;14.23;13.20;;;2.40;1.00;;;;;;5032084;28;20225;-37
2024/01/13 04:21:52;;;;;;;13.73;12.80;;;2.40;1.00;;;;;;5033180;28;20864;-36
2024/01/13 04:24:17;;;;;;;15.10;14.00;;;2.50;99.90;;;;;;5027728;28;20680;-57
2024/01/13 04:26:43;;;;;;;14.20;13.20;;;2.50;99.90;;;;;;5027567;28;20637;-49
2024/01/13 04:29:09;;;;;;;13.88;13.07;;;2.40;99.90;;;;;;5031626;28;20643;-55
2024/01/13 04:31:35;;;;;;;13.68;12.80;;;2.40;99.90;;;;;;5028520;28;20204;-55
2024/01/13 04:34:01;;;;;;;14.33;13.27;;;2.40;99.90;;;;;;5023485;28;20193;-52
2024/01/13 04:36:26;;;;;;;13.57;12.77;;;2.40;99.90;;;;;;5038186;28;20200;-56
2024/01/13 04:38:54;;;;;;;12.93;12.17;;;2.40;99.90;;;;;;5040311;28;20628;-56
2024/01/13 04:41:19;;;;;;;13.65;12.75;;;2.50;99.90;;;;;;5006653;28;20237;-55
2024/01/13 04:43:45;;;;;;;14.53;13.63;;;2.50;99.90;;;;;;5034432;28;20181;-55
2024/01/13 04:46:11;;;;;;;14.13;13.20;;;2.50;99.90;;;;;;5020350;28;20193;-56
2024/01/13 04:48:37;;;;;;;14.23;13.40;;;2.50;99.90;;;;;;5028469;28;20645;-55
2024/01/13 04:51:03;;;;;;;14.13;13.13;;;2.50;99.90;;;;;;5032783;28;20197;-55
2024/01/13 04:53:29;;;;;;;13.43;12.63;;;2.40;99.90;;;;;;5021212;28;20776;-56
2024/01/13 04:55:56;;;;;;;13.60;12.70;;;2.40;99.90;;;;;;5021134;28;20189;-56
2024/01/13 04:58:22;;;;;;;13.52;12.57;;;2.50;99.90;;;;;;5020182;28;20175;-54
2024/01/13 05:00:47;;;;;;;14.97;13.77;;;2.50;99.90;;;;;;5019788;28;20212;-55
2024/01/13 05:03:13;;;;;;;13.37;12.47;;;2.40;99.90;;;;;;5022047;28;20240;-47
2024/01/13 05:05:38;;;;;;;12.90;12.10;;;2.40;99.90;;;;;;5020431;28;20187;-57
2024/01/13 05:08:04;;;;;;;13.50;12.70;;;2.30;99.90;;;;;;5031651;28;20639;-53
2024/01/13 05:10:30;;;;;;;12.67;11.87;;;2.30;99.90;;;;;;5021206;28;20186;-54
2024/01/13 05:12:55;;;;;;;13.90;12.90;;;2.20;99.90;;;;;;5027086;28;20210;-55
2024/01/13 05:15:21;;;;;;;13.20;12.27;;;2.20;99.90;;;;;;5038906;28;20275;-55
2024/01/13 05:17:46;;;;;;;13.60;12.70;;;2.30;99.90;;;;;;5023504;28;20184;-57
2024/01/13 05:20:12;;;;;;;13.80;12.90;;;2.30;99.90;;;;;;5019499;28;20260;-57
2024/01/13 05:22:38;;;;;;;13.53;12.63;;;2.40;99.90;;;;;;5021085;28;20521;-54
2024/01/13 05:25:04;;;;;;;13.23;12.43;;;2.50;99.90;;;;;;5021436;28;20438;-45
2024/01/13 05:27:30;;;;;;;12.52;11.82;;;2.40;99.90;;;;;;5019812;28;20568;-57
2024/01/13 05:29:55;;;;;;;13.23;12.43;;;2.40;99.90;;;;;;5035971;28;20189;-57
2024/01/13 05:32:21;;;;;;;12.67;11.87;;;2.40;99.90;;;;;;5001881;28;20185;-57
2024/01/13 05:34:47;;;;;;;12.80;12.00;;;2.40;99.90;;;;;;5023265;28;20188;-57
2024/01/13 05:37:12;;;;;;;13.13;12.23;;;2.50;99.90;;;;;;5024065;28;20181;-55
2024/01/13 05:39:38;;;;;;;13.70;12.90;;;2.50;99.90;;;;;;5039767;28;20184;-55
2024/01/13 05:42:04;;;;;;;13.00;12.23;;;2.50;99.90;;;;;;5031169;28;20218;-55
2024/01/13 05:44:29;;;;;;;13.27;12.40;;;2.50;99.90;;;;;;5033867;28;20682;-57
2024/01/13 05:46:55;;;;;;;12.60;11.90;;;2.50;99.90;;;;;;5030749;28;20949;-58
2024/01/13 05:49:20;;;;;;;12.43;11.73;;;2.50;99.90;;;;;;5024252;28;20926;-58
2024/01/13 05:51:46;;;;;;;12.83;12.03;;;2.60;99.90;;;;;;5025674;28;20192;-54
2024/01/13 05:54:11;;;;;;;12.70;11.90;;;2.60;99.90;;;;;;5035103;28;20593;-57
2024/01/13 05:56:37;;;;;;;12.73;11.87;;;2.60;99.90;;;;;;5033376;28;20190;-58
2024/01/13 05:59:03;;;;;;;12.87;12.07;;;2.50;99.90;;;;;;5026038;28;20264;-57
2024/01/13 06:01:28;;;;;;;12.30;11.60;;;2.60;99.90;;;;;;5027883;28;20248;-56
2024/01/13 06:03:54;;;;;;;12.40;11.80;;;2.50;99.90;;;;;;5041318;28;20192;-56
2024/01/13 06:06:19;;;;;;;12.40;11.70;;;2.60;99.90;;;;;;5043676;28;20227;-56
2024/01/13 06:08:45;;;;;;;12.30;11.60;;;2.60;99.90;;;;;;5033794;28;20686;-57
2024/01/13 06:11:10;;;;;;;13.20;12.30;;;2.60;99.90;;;;;;5038300;28;20189;-56
2024/01/13 06:13:36;;;;;;;12.17;11.50;;;2.50;99.90;;;;;;5034620;28;20190;-56
2024/01/13 06:16:03;;;;;;;13.10;12.10;;;2.60;99.90;;;;;;5032441;28;20857;-55
2024/01/13 06:18:28;;;;;;;12.32;11.68;;;2.60;99.90;;;;;;5028979;28;20223;-57
2024/01/13 06:20:54;;;;;;;12.30;11.60;;;2.70;99.90;;;;;;5029117;28;20206;-57
2024/01/13 06:23:21;;;;;;;12.40;11.70;;;2.70;99.90;;;;;;5033136;28;20185;-57
2024/01/13 06:25:47;;;;;;;12.38;11.68;;;2.70;99.90;;;;;;5022387;28;20269;-55
2024/01/13 06:28:13;;;;;;;12.90;12.10;;;2.70;99.90;;;;;;5023890;28;21165;-57
2024/01/13 06:30:38;;;;;;;13.30;12.40;;;2.60;99.90;;;;;;5041625;28;20492;-54
2024/01/13 06:33:04;;;;;;;13.90;12.90;;;2.50;99.90;;;;;;5022989;28;20201;-55
2024/01/13 06:35:30;;;;;;;13.13;12.33;;;2.50;99.90;;;;;;5027222;28;20188;-52
2024/01/13 06:37:56;;;;;;;12.63;11.93;;;2.50;99.90;;;;;;5029752;28;20197;-53
2024/01/13 06:40:21;;;;;;;13.27;12.48;;;2.40;99.90;;;;;;5038233;28;20296;-53
2024/01/13 06:42:47;;;;;;;13.13;12.30;;;2.40;99.90;;;;;;5034455;28;20203;-36
2024/01/13 06:45:13;;;;;;;13.13;12.23;;;2.50;99.90;;;;;;5035457;28;20189;-39
2024/01/13 06:47:38;;;;;;;12.70;11.90;;;2.50;99.90;;;;;;5037038;28;20181;-36
2024/01/13 06:50:04;;;;;;;13.07;11.97;;;2.60;99.90;;;;;;5034177;28;20189;-36
2024/01/13 06:52:30;;;;;;;13.13;12.25;;;2.60;99.90;;;;;;5037826;28;20515;-35
2024/01/13 06:54:55;;;;;;;12.90;12.10;;;2.50;99.90;;;;;;5034483;28;20180;-36
2024/01/13 06:57:22;;;;;;;13.60;12.63;;;2.50;99.90;;;;;;5033920;28;20227;-39
2024/01/13 06:59:47;;;;;;;12.68;11.65;;;2.60;99.90;;;;;;5033593;28;20615;-37
2024/01/13 07:02:13;;;;;;;12.53;11.83;;;2.60;99.90;;;;;;5037938;28;20214;-36
2024/01/13 07:04:40;;;;;;;12.95;12.18;;;2.50;99.90;;;;;;5028749;28;20655;-37
2024/01/13 07:07:06;;;;;;;13.77;12.77;;;2.50;99.90;;;;;;5039359;28;20281;-36
2024/01/13 07:09:32;;;;;;;13.27;12.37;;;2.60;99.90;;;;;;5028581;28;20183;-36
2024/01/13 07:11:58;;;;;;;14.20;13.23;;;2.60;99.90;;;;;;5037835;28;20191;-36
2024/01/13 07:14:23;;;;;;;12.87;12.17;;;2.50;99.90;;;;;;5034294;28;20423;-37
2024/01/13 07:16:49;;;;;;;12.53;11.83;;;2.60;99.90;;;;;;5035151;28;20897;-35
2024/01/13 07:19:15;;;;;;;12.60;11.80;;;2.60;99.90;;;;;;5024853;28;20237;-38
2024/01/13 07:21:41;;;;;;;13.20;12.40;;;2.60;99.90;;;;;;5037923;28;20224;-36
2024/01/13 07:24:08;;;;;;;13.25;12.35;;;2.60;99.90;;;;;;5022537;28;20200;-36
2024/01/13 07:26:40;;;;;;;12.70;12.00;;;2.70;99.90;;;;;;5023339;28;20183;-37
2024/01/13 07:29:06;;;;;;;13.20;12.50;;;2.70;99.90;;;;;;5024237;28;20186;-37
2024/01/13 07:31:32;;;;;;;14.25;13.35;;;2.80;99.90;;;;;;5038419;28;20185;-37
2024/01/13 07:33:58;;;;;;;13.67;12.80;;;2.90;99.90;;;;;;5031609;28;20853;-36
2024/01/13 07:36:23;;;;;;;12.53;11.73;;;2.90;99.90;;;;;;5028521;28;20185;-36
2024/01/13 07:38:49;;;;;;;13.13;12.33;;;2.90;99.90;;;;;;5032314;28;20244;-36
2024/01/13 07:41:14;;;;;;;12.97;12.07;;;3.00;99.90;;;;;;5026696;28;20216;-57
2024/01/13 07:43:40;;;;;;;12.40;11.60;;;2.90;99.90;;;;;;5025933;28;20243;-57
2024/01/13 07:46:06;;;;;;;14.17;13.07;;;2.90;99.90;;;;;;5037057;28;20182;-55
2024/01/13 07:48:31;;;;;;;12.50;11.70;;;2.90;99.90;;;;;;5027984;28;20242;-45
2024/01/13 07:50:57;;;;;;;13.60;12.70;;;2.90;99.90;;;;;;5010313;28;20194;-54
2024/01/13 07:53:22;;;;;;;14.10;13.10;;;2.90;99.90;;;;;;5039129;28;20184;-57
2024/01/13 07:55:48;;;;;;;13.50;12.70;;;2.90;99.90;;;;;;5033786;28;20193;-54
2024/01/13 07:58:14;;;;;;;13.03;12.23;;;2.90;99.90;;;;;;5028670;28;20601;-56
2024/01/13 08:00:39;;;;;;;13.57;12.70;;;3.00;99.90;;;;;;5031212;28;20258;-39
2024/01/13 08:03:05;;;;;;;14.23;13.23;;;2.90;99.90;;;;;;5026067;28;20668;-37
2024/01/13 08:05:31;;;;;;;12.70;11.90;;;2.90;99.90;;;;;;5038420;28;20610;-37
2024/01/13 08:07:57;;;;;;;13.63;12.73;;;2.80;99.90;;;;;;5031210;28;20653;-36
2024/01/13 08:10:23;;;;;;;12.93;12.13;;;2.80;99.90;;;;;;5034638;28;20847;-37
2024/01/13 08:12:48;;;;;;;13.80;12.90;;;2.70;99.90;;;;;;5035650;28;20182;-38
2024/01/13 08:15:14;;;;;;;12.40;11.73;;;2.60;99.90;;;;;;5022883;28;20184;-37
2024/01/13 08:17:40;;;;;;;13.10;12.30;;;2.70;99.90;;;;;;5029732;28;20201;-37
2024/01/13 08:20:09;;;;;;;13.63;12.80;;;2.70;99.90;;;;;;5028171;28;20483;-37
2024/01/13 08:22:34;;;;;;;14.02;13.02;;;2.70;99.90;;;;;;5029193;28;20193;-39
2024/01/13 08:25:00;;;;;;;13.40;12.50;;;2.60;99.90;;;;;;5031042;28;20181;-36
2024/01/13 08:27:26;;;;;;;13.60;12.50;;;2.70;99.90;;;;;;5033108;28;20867;-37
2024/01/13 08:29:52;;;;;;;13.85;12.75;;;2.70;99.90;;;;;;5023229;28;20174;-36
2024/01/13 08:32:17;;;;;;;15.03;13.93;;;2.70;99.90;;;;;;5021823;28;20186;-37
2024/01/13 08:34:43;;;;;;;13.93;13.03;;;2.80;99.90;;;;;;5009504;28;21499;-36
2024/01/13 08:37:09;;;;;;;13.77;12.77;;;2.60;99.90;;;;;;5026899;28;20194;-36
2024/01/13 08:39:35;;;;;;;13.50;12.60;;;2.70;99.90;;;;;;5031875;28;20241;-37
2024/01/13 08:42:01;;;;;;;12.80;12.00;;;2.60;99.90;;;;;;5039767;28;20633;-36
2024/01/13 08:44:27;;;;;;;14.27;13.30;;;2.80;99.90;;;;;;5029979;28;21266;-39
2024/01/13 08:46:52;;;;;;;13.57;12.68;;;2.80;99.90;;;;;;5030021;28;20204;-36
2024/01/13 08:49:18;;;;;;;14.10;13.00;;;2.80;99.90;;;;;;5029919;28;20185;-36
2024/01/13 08:51:44;;;;;;;13.37;12.47;;;2.70;99.90;;;;;;5037479;28;20240;-36
2024/01/13 08:54:09;;;;;;;13.13;11.93;;;2.80;99.90;;;;;;5031933;28;21262;-36
2024/01/13 08:56:36;;;;;;;12.30;11.40;;;2.80;99.90;;;;;;5040234;28;20188;-36
2024/01/13 08:59:02;;;;;;;13.20;12.30;;;2.80;99.90;;;;;;5031663;28;20190;-36
2024/01/13 09:01:28;;;;;;;13.63;12.63;;;2.80;99.90;;;;;;5031690;28;20436;-36
2024/01/13 09:03:53;;;;;;;13.13;12.30;;;2.80;99.90;;;;;;5033703;28;20184;-36
2024/01/13 09:06:19;;;;;;;13.87;12.87;;;2.80;99.90;;;;;;5031713;28;20182;-36
2024/01/13 09:08:45;;;;;;;12.80;12.00;;;2.80;99.90;;;;;;5040315;28;20189;-38
2024/01/13 09:11:10;;;;;;;14.60;13.50;;;2.80;99.90;;;;;;5038394;28;20192;-36
2024/01/13 09:13:36;;;;;;;13.40;12.37;;;2.80;99.90;;;;;;5031936;28;20194;-36
2024/01/13 09:16:02;;;;;;;13.05;12.15;;;2.80;99.90;;;;;;5030704;28;20186;-37
2024/01/13 09:18:28;;;;;;;13.77;12.67;;;2.80;99.90;;;;;;5039278;28;20213;-37
2024/01/13 09:20:53;;;;;;;14.33;13.30;;;2.80;99.90;;;;;;5036352;28;20227;-37
2024/01/13 09:23:19;;;;;;;13.47;12.53;;;2.90;99.90;;;;;;5031670;28;20181;-38
2024/01/13 09:25:44;;;;;;;13.10;12.27;;;2.90;99.90;;;;;;5025384;28;20987;-53
2024/01/13 09:28:10;;;;;;;13.83;12.93;;;3.00;99.90;;;;;;5032977;28;20249;-38
2024/01/13 09:30:36;;;;;;;12.70;11.83;;;2.80;99.90;;;;;;5027110;28;20185;-37
2024/01/13 09:33:04;;;;;;;13.63;12.77;;;2.80;99.90;;;;;;5010634;28;20252;-38
2024/01/13 09:35:31;;;;;;;13.68;12.77;;;2.80;99.90;;;;;;5009798;28;20189;-36
2024/01/13 09:37:58;;;;;;;13.27;12.32;;;2.80;99.90;;;;;;5009569;28;20184;-36
2024/01/13 09:40:24;;;;;;;12.50;11.65;;;2.80;99.90;;;;;;5032516;28;20278;-56
2024/01/13 09:42:59;;;;;;;14.05;12.85;;;2.80;99.90;;;;;;5034661;28;20189;-53
2024/01/13 09:45:25;;;;;;;14.57;13.38;;;2.80;99.90;;;;;;5041546;28;20181;-55
2024/01/13 09:47:54;;;;;;;11.63;10.90;;;2.80;99.90;;;;;;5035982;28;20189;-54
2024/01/13 09:50:19;;;;;;;12.90;12.00;;;2.90;99.90;;;;;;5030912;28;20189;-54
2024/01/13 09:52:46;;;;;;;12.60;11.80;;;2.90;99.90;;;;;;5040044;28;21094;-54
2024/01/13 09:55:15;;;;;;;12.50;11.48;;;2.80;99.90;;;;;;5023877;28;20208;-54
2024/01/13 09:57:42;;;;;;;12.52;11.52;;;2.90;99.90;;;;;;5030442;28;20623;-54
2024/01/13 10:00:08;;;;;;;12.80;11.90;;;2.80;99.90;;;;;;5022809;28;20172;-43
2024/01/13 10:02:34;;;;;;;12.60;11.80;;;2.90;99.90;;;;;;5023689;28;20771;-54
2024/01/13 10:04:59;;;;;;;12.13;11.23;;;2.90;99.90;;;;;;5026409;28;20182;-55
2024/01/13 10:07:28;;;;;;;12.97;12.07;;;2.90;99.90;;;;;;5028038;28;20220;-53
2024/01/13 10:09:54;;;;;;;13.40;12.35;;;3.00;99.90;;;;;;5031294;28;20193;-55
2024/01/13 10:12:20;;;;;;;12.93;11.93;;;3.00;99.90;;;;;;5034065;28;20188;-56
2024/01/13 10:14:46;;;;;;;13.43;12.33;;;3.00;99.90;;;;;;5043346;28;20190;-53
2024/01/13 10:17:12;;;;;;;15.25;13.93;;;3.00;99.90;;;;;;5023447;28;20185;-52
2024/01/13 10:19:38;;;;;;;14.27;13.20;;;3.00;99.90;;;;;;5026156;28;20226;-56
2024/01/13 10:22:05;;;;;;;14.20;13.00;;;3.00;99.90;;;;;;5022210;28;20216;-55
2024/01/13 10:24:31;;;;;;;14.75;13.65;;;3.10;99.90;;;;;;5024454;28;20265;-54
2024/01/13 10:26:57;;;;;;;13.70;12.60;;;3.10;99.90;;;;;;5024282;28;20692;-54
2024/01/13 10:29:23;;;;;;;14.70;13.73;;;3.00;99.90;;;;;;5024308;28;20193;-49
2024/01/13 10:31:52;;;;;;;12.90;11.95;;;2.90;99.90;;;;;;5023070;28;20185;-54
2024/01/13 10:34:21;;;;;;;14.00;12.90;;;2.90;99.90;;;;;;5027716;28;20185;-56
2024/01/13 10:36:47;;;;;;;15.07;13.98;;;2.90;99.90;;;;;;5022916;28;20204;-51
2024/01/13 10:39:12;;;;;;;13.60;12.50;;;2.90;99.90;;;;;;5027729;28;20190;-35
2024/01/13 10:41:44;;;;;;;14.50;13.30;;;2.80;99.90;;;;;;5030287;28;20544;-36
2024/01/13 10:44:12;;;;;;;13.50;12.57;;;2.80;99.90;;;;;;5033406;28;20301;-36
2024/01/13 10:46:41;;;;;;;14.00;13.00;;;2.90;99.90;;;;;;5029611;28;20178;-36
2024/01/13 10:49:16;;;;;;;13.00;12.00;;;2.70;99.90;;;;;;5038344;28;20259;-36
2024/01/13 10:51:45;;;;;;;13.57;12.48;;;2.70;99.90;;;;;;5030747;28;20202;-35
2024/01/13 10:54:13;;;;;;;14.00;12.90;;;2.70;99.90;;;;;;5031207;28;20189;-36
2024/01/13 10:56:40;;;;;;;14.85;13.73;;;2.80;99.90;;;;;;5036545;28;20184;-36
2024/01/13 10:59:08;;;;;;;14.73;13.60;;;2.80;99.90;;;;;;5033611;28;20182;-35
2024/01/13 11:01:35;;;;;;;12.85;11.85;;;2.80;99.90;;;;;;5033206;28;20216;-56
2024/01/13 11:04:04;;;;;;;14.35;13.25;;;2.80;99.90;;;;;;5028875;28;20220;-52
2024/01/13 11:06:30;;;;;;;13.98;13.00;;;2.90;99.90;;;;;;5042376;28;20181;-56
2024/01/13 11:08:56;;;;;;;13.70;12.80;;;3.00;99.90;;;;;;5036886;28;20235;-56
2024/01/13 11:11:28;;;;;;;13.88;12.98;;;2.90;99.90;;;;;;5040528;28;20274;-55
2024/01/13 11:14:00;;;;;;;13.55;12.68;;;2.90;99.90;;;;;;5030562;28;20177;-56
2024/01/13 11:16:28;;;;;;;14.25;13.15;;;2.80;99.90;;;;;;5028429;28;20253;-53
2024/01/13 11:18:54;;;;;;;12.10;11.25;;;2.80;99.90;;;;;;5033570;28;20767;-55
2024/01/13 11:21:28;;;;;;;13.05;12.05;;;2.90;99.90;;;;;;5031983;28;20217;-54
2024/01/13 11:23:53;;;;;;;13.20;12.13;;;2.90;99.90;;;;;;5034596;28;20277;-55
2024/01/13 11:26:22;;;;;;;12.20;11.30;;;2.80;99.90;;;;;;5028603;28;20278;-57
2024/01/13 11:28:50;;;;;;;13.65;12.65;;;2.80;99.90;;;;;;5029383;28;20547;-55
2024/01/13 11:31:38;;;;;;;13.65;12.65;;;2.80;99.90;;;;;;5034284;28;20740;-36
2024/01/13 11:34:10;;;;;;;12.82;11.88;;;2.80;99.90;;;;;;5025590;28;20647;-37
2024/01/13 11:36:44;;;;;;;13.40;12.32;;;2.90;99.90;;;;;;5027794;28;20279;-36
2024/01/13 11:39:09;;;;;;;12.55;11.75;;;2.90;99.90;;;;;;5029901;28;20710;-36
2024/01/13 11:41:49;;;;;;;13.97;12.97;;;2.90;99.90;;;;;;5003304;28;20221;-37
2024/01/13 11:44:24;;;;;;;14.23;13.20;;;2.90;99.90;;;;;;5025573;28;20426;-36
2024/01/13 11:47:02;;;;;;;15.02;13.82;;;2.90;99.90;;;;;;5028080;28;20529;-37
2024/01/13 11:49:38;;;;;;;13.75;12.75;;;2.90;99.90;;;;;;5026447;28;20268;-35
2024/01/13 11:52:05;;;;;;;14.75;13.65;;;2.80;99.90;;;;;;5035030;28;20407;-37
2024/01/13 11:54:33;;;;;;;14.80;13.70;;;2.80;99.90;;;;;;5035555;28;20591;-38
2024/01/13 11:57:01;;;;;;;13.80;12.80;;;2.80;99.90;;;;;;5035562;28;20182;-36
2024/01/13 11:59:27;;;;;;;13.95;12.95;;;2.80;99.90;;;;;;5034415;28;20186;-38
2024/01/13 12:01:57;;;;;;;14.50;13.40;;;2.70;99.90;;;;;;5033260;28;20485;-37
2024/01/13 12:04:27;;;;;;;13.88;12.88;;;2.60;99.90;;;;;;5025129;28;20413;-37
2024/01/13 12:06:54;;;;;;;14.20;13.18;;;2.60;99.90;;;;;;5037990;28;20226;-36
2024/01/13 12:09:23;;;;;;;13.70;12.65;;;2.50;99.90;;;;;;5037091;28;20196;-36
2024/01/13 12:11:55;;;;;;;14.85;13.75;;;2.50;99.90;;;;;;5039540;28;20270;-36
2024/01/13 12:14:28;;;;;;;14.43;13.15;;;2.60;99.90;;;;;;5030305;28;20199;-56
2024/01/13 12:16:56;;;;;;;14.32;13.25;;;2.60;99.90;;;;;;5032024;28;20185;-55
2024/01/13 12:19:23;;;;;;;13.80;12.80;;;2.60;99.90;;;;;;5029448;28;20386;-57
2024/01/13 12:21:49;;;;;;;14.45;13.10;;;2.50;99.90;;;;;;5034229;28;20725;-53
2024/01/13 12:24:15;;;;;;;13.23;12.18;;;2.50;99.90;;;;;;5028482;28;20197;-56
2024/01/13 12:26:41;;;;;;;14.37;13.37;;;2.40;99.90;;;;;;5027184;28;20218;-56
2024/01/13 12:29:08;;;;;;;13.97;12.90;;;2.50;99.90;;;;;;5027642;28;20505;-53
2024/01/13 12:31:34;;;;;;;14.25;13.15;;;2.50;99.90;;;;;;5031512;28;20209;-51
2024/01/13 12:34:14;;;;;;;14.90;13.60;;;2.40;99.90;;;;;;5021117;28;20292;-57